»·PEaware :: N2442P O60-KWLW

N2442P :: O60-KWLW

FLIGHT INFORMATION

Flight Status: Arrived
Operator: Privately registered:
United States
More flights under this callsign
Pilot: Ken Q. (14290)
Aircraft: MOONEY M-20K/M ENCORE BRAVO
(M20T)
More flights by this aircraft type
Origin: O60 Cloverdale Mun
United States
Destination: KWLW Willows-Glenn Co
United States
More flights between these airports :: More routes between these airports
Route: O60 MXW KWLW
File this flight plan on PilotEdge
Remarks:
Altitude:
(Current/Filed)
7,500ft
Speed:
(Current/Filed)
175kts
Departed: 28-Dec-18 02:16 PM
Arrived: 28-Dec-18 02:51 PM
Distance/Time
Traveled:
57nm/0:34
Distance/Time
To Go:
Arrived

Flight Plot

Page will automatically refresh every two minutes.

Flight plan parsing failed; only flown route is shown


Map Options




Map Legend


Flown Route
Filed Route
Departure Airport
Arrival Airport
Navaid (VOR, NDB)
Fix

Horizontal Profiles

Position Reports

Time Latitude Longitude Heading Altitude Ground
Speed
28-Dec-18 13:51 38.774556 -122.992778 157 275ft 0kts
28-Dec-18 13:52 38.774556 -122.992778 157 275ft 0kts
28-Dec-18 13:53 38.774556 -122.992778 157 275ft 0kts
28-Dec-18 13:54 38.774556 -122.992778 157 275ft 0kts
28-Dec-18 13:55 38.774556 -122.992778 157 275ft 0kts
28-Dec-18 13:56 38.774556 -122.992778 157 275ft 0kts
28-Dec-18 13:57 38.774556 -122.992778 157 275ft 0kts
28-Dec-18 13:58 38.774556 -122.992778 157 275ft 0kts
28-Dec-18 13:59 38.774556 -122.992778 157 275ft 0kts
28-Dec-18 14:00 38.774556 -122.992778 157 275ft 0kts
28-Dec-18 14:01 38.774556 -122.992778 157 275ft 0kts
28-Dec-18 14:02 38.774556 -122.992778 157 275ft 0kts
28-Dec-18 14:03 38.774556 -122.992778 157 275ft 0kts
28-Dec-18 14:04 38.774555 -122.992778 157 275ft 0kts
28-Dec-18 14:05 38.774555 -122.992778 157 275ft 0kts
28-Dec-18 14:06 38.774555 -122.992777 157 275ft 0kts
28-Dec-18 14:07 38.774555 -122.992777 157 275ft 0kts
28-Dec-18 14:08 38.774554 -122.992777 157 275ft 0kts
28-Dec-18 14:09 38.774551 -122.992627 46 275ft 1kts
28-Dec-18 14:10 38.773457 -122.991348 153 275ft 5kts
28-Dec-18 14:11 38.772645 -122.991013 153 275ft 0kts
28-Dec-18 14:12 38.772623 -122.990994 139 275ft 2kts
28-Dec-18 14:13 38.772630 -122.990666 70 275ft 0kts
28-Dec-18 14:14 38.772960 -122.990414 332 275ft 0kts
28-Dec-18 14:15 38.784470 -122.997735 334 463ft 88kts
28-Dec-18 14:16 38.814357 -123.003149 14 1106ft 125kts
28-Dec-18 14:17 38.813298 -122.962839 108 1944ft 132kts
28-Dec-18 14:18 38.814433 -122.920341 73 2869ft 113kts
28-Dec-18 14:19 38.819991 -122.886225 58 3777ft 99kts
28-Dec-18 14:20 38.833156 -122.858167 46 4718ft 88kts
28-Dec-18 14:21 38.847644 -122.834326 45 5514ft 95kts
28-Dec-18 14:22 38.870253 -122.800278 44 5506ft 146kts
28-Dec-18 14:23 38.898375 -122.759073 44 5498ft 158kts
28-Dec-18 14:24 38.927712 -122.716174 44 5498ft 160kts
28-Dec-18 14:25 38.957262 -122.673732 43 5498ft 159kts
28-Dec-18 14:26 38.986940 -122.631175 43 5497ft 160kts
28-Dec-18 14:27 39.017327 -122.589549 38 5500ft 158kts
28-Dec-18 14:28 39.050255 -122.551957 37 5500ft 157kts
28-Dec-18 14:29 39.083189 -122.514659 37 5503ft 157kts
28-Dec-18 14:30 39.116532 -122.477374 37 5511ft 160kts
28-Dec-18 14:31 39.150082 -122.439070 40 5515ft 161kts
28-Dec-18 14:32 39.181921 -122.398576 41 5515ft 159kts
28-Dec-18 14:33 39.213280 -122.358666 40 5438ft 157kts
28-Dec-18 14:34 39.242958 -122.320649 40 5125ft 145kts
28-Dec-18 14:35 39.271122 -122.284128 40 4829ft 143kts
28-Dec-18 14:36 39.300298 -122.246740 37 4423ft 149kts
28-Dec-18 14:37 39.332440 -122.215825 2 3942ft 140kts
28-Dec-18 14:38 39.363673 -122.220033 358 3389ft 95kts
28-Dec-18 14:39 39.389404 -122.220455 358 2885ft 94kts
28-Dec-18 14:40 39.415089 -122.232807 338 2405ft 102kts
28-Dec-18 14:41 39.443315 -122.243305 349 1903ft 107kts
28-Dec-18 14:42 39.472495 -122.248685 349 1396ft 105kts
28-Dec-18 14:43 39.499396 -122.253376 348 1174ft 91kts
28-Dec-18 14:44 39.521733 -122.265136 12 1120ft 88kts
28-Dec-18 14:45 39.514851 -122.238890 151 1115ft 87kts
28-Dec-18 14:46 39.494267 -122.220350 146 1040ft 92kts
28-Dec-18 14:47 39.477991 -122.195855 53 951ft 97kts
28-Dec-18 14:48 39.497552 -122.198467 324 583ft 71kts
28-Dec-18 14:49 39.513394 -122.212718 323 142ft 52kts
28-Dec-18 14:50 39.517636 -122.216565 326 142ft 33kts
28-Dec-18 14:51 39.520970 -122.218433 144 142ft 6kts
28-Dec-18 14:52 39.520348 -122.217999 50 142ft 3kts
28-Dec-18 14:53 39.520349 -122.218016 55 142ft 0kts
28-Dec-18 14:54 39.520349 -122.218016 55 142ft 0kts
28-Dec-18 14:55 39.520349 -122.218016 55 142ft 0kts
28-Dec-18 14:56 39.520349 -122.218016 55 142ft 0kts
28-Dec-18 14:57 39.520349 -122.218016 55 142ft 0kts
28-Dec-18 14:58 39.520349 -122.218016 55 142ft 0kts
28-Dec-18 14:59 39.520349 -122.218016 55 142ft 0kts
28-Dec-18 15:00 39.520349 -122.218016 55 142ft 0kts
28-Dec-18 15:01 39.520349 -122.218016 55 142ft 0kts
28-Dec-18 15:02 39.520349 -122.218016 55 142ft 0kts
28-Dec-18 15:03 39.520349 -122.218016 55 142ft 0kts
28-Dec-18 15:04 39.520349 -122.218016 55 142ft 0kts

Navigation Log

Ident Type
Flight plan parsing failed, navigation log unavailable